createdAt,value
2023-05-08T00:00:58.531Z,97916.00
2023-05-08T00:03:25.751Z,97929.00
2023-05-08T00:05:54.544Z,97916.00
2023-05-08T00:08:20.747Z,97918.00
2023-05-08T00:10:47.154Z,97922.00
2023-05-08T00:13:13.381Z,97928.00
2023-05-08T00:15:39.653Z,97926.00
2023-05-08T00:18:05.944Z,97926.00
2023-05-08T00:20:33.577Z,97937.00
2023-05-08T00:22:59.856Z,97915.00
2023-05-08T00:25:26.963Z,97937.00
2023-05-08T00:27:53.394Z,97938.00
2023-05-08T00:30:19.768Z,97933.00
2023-05-08T00:32:46.356Z,97931.00
2023-05-08T00:35:12.825Z,97922.00
2023-05-08T00:37:40.397Z,97937.00
2023-05-08T00:40:09.315Z,97931.00
2023-05-08T00:42:35.814Z,97935.00
2023-05-08T00:45:02.492Z,97929.00
2023-05-08T00:47:30.899Z,97929.00
2023-05-08T00:49:58.698Z,97943.00
2023-05-08T00:52:29.166Z,97935.00
2023-05-08T00:54:55.907Z,97934.00
2023-05-08T00:57:23.698Z,97945.00
2023-05-08T00:59:51.830Z,97942.00
2023-05-08T01:02:18.349Z,97945.00
2023-05-08T01:04:47.592Z,97944.00
2023-05-08T01:07:13.860Z,97955.00
2023-05-08T01:09:40.108Z,97942.00
2023-05-08T01:12:12.273Z,97947.00
2023-05-08T01:15:13.641Z,97952.00
2023-05-08T01:18:12.489Z,97941.00
2023-05-08T01:20:55.870Z,97950.00
2023-05-08T01:24:02.730Z,97945.00
2023-05-08T01:27:24.112Z,97944.00
2023-05-08T01:30:26.350Z,97952.00
2023-05-08T01:33:07.709Z,97944.00
2023-05-08T01:35:49.581Z,97954.00
2023-05-08T01:38:47.454Z,97961.00
2023-05-08T01:41:25.932Z,97959.00
2023-05-08T01:44:14.563Z,97960.00
2023-05-08T01:46:47.717Z,97950.00
2023-05-08T01:49:45.699Z,97950.00
2023-05-08T01:52:31.386Z,97961.00
2023-05-08T01:55:09.210Z,97967.00
2023-05-08T01:57:46.194Z,97966.00
2023-05-08T02:00:16.532Z,97955.00
2023-05-08T02:02:45.145Z,97957.00
2023-05-08T02:05:14.081Z,97972.00
2023-05-08T02:07:43.159Z,97982.00
2023-05-08T02:10:12.037Z,97964.00
2023-05-08T02:12:40.394Z,97973.00
2023-05-08T02:15:09.080Z,97964.00
2023-05-08T02:17:40.012Z,97970.00
2023-05-08T02:20:13.947Z,97977.00
2023-05-08T02:22:50.001Z,97968.00
2023-05-08T02:25:18.648Z,97971.00
2023-05-08T02:27:48.713Z,97979.00
2023-05-08T02:30:18.415Z,97972.00
2023-05-08T02:32:48.438Z,97966.00
2023-05-08T02:35:18.691Z,97971.00
2023-05-08T02:37:50.903Z,97972.00
2023-05-08T02:40:18.384Z,97971.00
2023-05-08T02:42:46.062Z,97974.00
2023-05-08T02:45:13.627Z,97979.00
2023-05-08T02:48:00.976Z,97988.00
2023-05-08T02:50:41.341Z,97974.00
2023-05-08T02:53:13.715Z,97985.00
2023-05-08T02:55:47.945Z,97972.00
2023-05-08T02:58:33.330Z,97980.00
2023-05-08T03:01:06.683Z,97974.00
2023-05-08T03:03:48.883Z,97977.00
2023-05-08T03:06:23.972Z,97963.00
2023-05-08T03:08:53.658Z,97971.00
2023-05-08T03:11:32.032Z,97969.00
2023-05-08T03:14:02.529Z,97963.00
2023-05-08T03:16:34.331Z,97967.00
2023-05-08T03:19:06.664Z,97979.00
2023-05-08T03:21:34.317Z,97981.00
2023-05-08T03:24:03.010Z,97984.00
2023-05-08T03:26:30.102Z,97983.00
2023-05-08T03:28:57.502Z,97978.00
2023-05-08T03:31:32.179Z,97960.00
2023-05-08T03:33:59.605Z,97976.00
2023-05-08T03:36:26.332Z,97978.00
2023-05-08T03:38:52.656Z,97982.00
2023-05-08T03:41:19.523Z,97969.00
2023-05-08T03:43:47.539Z,97978.00
2023-05-08T03:46:16.389Z,97976.00
2023-05-08T03:48:44.039Z,97979.00
2023-05-08T03:51:11.490Z,97971.00
2023-05-08T03:53:38.332Z,97972.00
2023-05-08T03:56:04.784Z,97976.00
2023-05-08T03:58:53.943Z,97980.00
2023-05-08T04:01:31.568Z,97973.00
2023-05-08T04:04:28.830Z,97973.00
2023-05-08T04:07:22.862Z,97989.00
2023-05-08T04:10:23.639Z,97983.00
2023-05-08T04:13:19.407Z,97990.00
2023-05-08T04:16:08.899Z,97983.00
2023-05-08T04:18:44.877Z,97983.00
2023-05-08T04:21:19.253Z,97974.00
2023-05-08T04:23:50.083Z,97986.00
2023-05-08T04:26:18.481Z,97984.00
2023-05-08T04:28:47.350Z,97986.00
2023-05-08T04:31:18.262Z,97988.00
2023-05-08T04:33:44.844Z,97987.00
2023-05-08T04:36:12.914Z,97993.00
2023-05-08T04:38:40.732Z,97981.00
2023-05-08T04:41:08.103Z,97986.00
2023-05-08T04:43:38.365Z,97993.00
2023-05-08T04:46:06.608Z,97986.00
2023-05-08T04:48:33.192Z,97956.00
2023-05-08T04:51:00.594Z,97992.00
2023-05-08T04:53:27.483Z,97980.00
2023-05-08T04:55:53.756Z,97979.00
2023-05-08T04:58:20.460Z,98005.00
2023-05-08T05:00:46.665Z,97998.00
2023-05-08T05:03:13.346Z,97996.00
2023-05-08T05:05:39.901Z,98009.00
2023-05-08T05:08:06.963Z,97994.00
2023-05-08T05:10:33.196Z,98008.00
2023-05-08T05:12:59.671Z,98001.00
2023-05-08T05:15:26.275Z,98011.00
2023-05-08T05:17:53.038Z,97982.00
2023-05-08T05:20:19.348Z,98016.00
2023-05-08T05:22:45.969Z,98015.00
2023-05-08T05:25:13.040Z,98021.00
2023-05-08T05:27:39.581Z,98016.00
2023-05-08T05:30:07.541Z,98017.00
2023-05-08T05:32:33.730Z,98032.00
2023-05-08T05:35:00.149Z,98029.00
2023-05-08T05:37:27.358Z,98015.00
2023-05-08T05:39:54.034Z,98022.00
2023-05-08T05:42:20.895Z,98011.00
2023-05-08T05:44:47.137Z,98021.00
2023-05-08T05:47:13.402Z,98030.00
2023-05-08T05:49:45.866Z,98028.00
2023-05-08T05:52:13.642Z,98034.00
2023-05-08T05:54:43.153Z,98033.00
2023-05-08T05:57:09.649Z,98036.00
2023-05-08T05:59:35.880Z,98044.00
2023-05-08T06:02:02.671Z,98045.00
2023-05-08T06:04:29.165Z,98037.00
2023-05-08T06:06:55.878Z,98056.00
2023-05-08T06:09:22.336Z,98047.00
2023-05-08T06:11:51.026Z,98051.00
2023-05-08T06:14:17.276Z,98047.00
2023-05-08T06:16:44.272Z,98045.00
2023-05-08T06:19:10.573Z,98039.00
2023-05-08T06:21:36.868Z,98040.00
2023-05-08T06:24:03.243Z,98040.00
2023-05-08T06:26:29.683Z,98044.00
2023-05-08T06:28:56.018Z,98044.00
2023-05-08T06:31:22.351Z,98059.00
2023-05-08T06:33:48.810Z,98050.00
2023-05-08T06:36:15.039Z,98047.00
2023-05-08T06:38:41.235Z,98052.00
2023-05-08T06:41:08.294Z,98050.00
2023-05-08T06:43:34.621Z,98045.00
2023-05-08T06:46:01.089Z,98043.00
2023-05-08T06:48:28.347Z,98048.00
2023-05-08T06:50:55.766Z,98045.00
2023-05-08T06:53:22.054Z,98039.00
2023-05-08T06:55:48.287Z,98039.00
2023-05-08T06:58:14.553Z,98049.00
2023-05-08T07:00:42.444Z,98052.00
2023-05-08T07:03:08.821Z,98058.00
2023-05-08T07:05:35.150Z,98039.00
2023-05-08T07:08:01.412Z,98047.00
2023-05-08T07:10:27.637Z,98056.00
2023-05-08T07:12:53.853Z,98051.00
2023-05-08T07:15:26.107Z,98042.00
2023-05-08T07:17:53.177Z,98054.00
2023-05-08T07:20:20.566Z,98051.00
2023-05-08T07:22:46.813Z,98049.00
2023-05-08T07:25:13.259Z,98048.00
2023-05-08T07:27:39.669Z,98070.00
2023-05-08T07:30:06.982Z,98054.00
2023-05-08T07:32:33.442Z,98074.00
2023-05-08T07:35:00.214Z,98072.00
2023-05-08T07:37:26.414Z,98053.00
2023-05-08T07:39:52.570Z,98076.00
2023-05-08T07:42:18.838Z,98081.00
2023-05-08T07:44:53.639Z,98094.00
2023-05-08T07:47:21.977Z,98080.00
2023-05-08T07:49:48.139Z,98080.00
2023-05-08T07:52:16.778Z,98085.00
2023-05-08T07:54:43.108Z,98081.00
2023-05-08T07:57:09.380Z,98082.00
2023-05-08T07:59:35.820Z,98079.00
2023-05-08T08:02:02.059Z,98079.00
2023-05-08T08:04:29.046Z,98078.00
2023-05-08T08:06:55.425Z,98079.00
2023-05-08T08:09:21.643Z,98069.00
2023-05-08T08:11:47.844Z,98078.00
2023-05-08T08:14:14.033Z,98074.00
2023-05-08T08:16:40.323Z,98075.00
2023-05-08T08:19:06.572Z,98084.00
2023-05-08T08:21:32.748Z,98070.00
2023-05-08T08:23:59.051Z,98074.00
2023-05-08T08:26:25.280Z,98064.00
2023-05-08T08:28:51.562Z,98072.00
2023-05-08T08:31:19.262Z,98061.00
2023-05-08T08:33:45.966Z,98059.00
2023-05-08T08:36:15.660Z,98062.00
2023-05-08T08:38:41.911Z,98064.00
2023-05-08T08:41:08.362Z,98071.00
2023-05-08T08:43:34.633Z,98075.00
2023-05-08T08:46:14.795Z,98070.00
2023-05-08T08:48:47.902Z,98069.00
2023-05-08T08:51:27.671Z,98076.00
2023-05-08T08:54:16.645Z,98069.00
2023-05-08T08:56:46.227Z,98064.00
2023-05-08T08:59:14.852Z,98069.00
2023-05-08T09:01:46.894Z,98079.00
2023-05-08T09:04:13.235Z,98065.00
2023-05-08T09:06:42.679Z,98078.00
2023-05-08T09:09:11.719Z,98073.00
2023-05-08T09:11:40.568Z,98078.00
2023-05-08T09:14:06.961Z,98087.00
2023-05-08T09:16:33.185Z,98082.00
2023-05-08T09:18:59.844Z,98065.00
2023-05-08T09:21:27.847Z,98074.00
2023-05-08T09:23:59.992Z,98082.00
2023-05-08T09:26:33.035Z,98089.00
2023-05-08T09:29:15.301Z,98075.00
2023-05-08T09:31:50.126Z,98082.00
2023-05-08T09:34:27.295Z,98071.00
2023-05-08T09:36:55.067Z,98078.00
2023-05-08T09:39:25.238Z,98091.00
2023-05-08T09:42:03.100Z,98087.00
2023-05-08T09:45:00.851Z,98083.00
2023-05-08T09:47:27.057Z,98079.00
2023-05-08T09:50:05.024Z,98085.00
2023-05-08T09:52:33.162Z,98076.00
2023-05-08T09:55:00.047Z,98069.00
2023-05-08T09:57:28.725Z,98069.00
2023-05-08T10:00:09.789Z,98082.00
2023-05-08T10:02:39.745Z,98085.00
2023-05-08T10:05:33.768Z,98081.00
2023-05-08T10:08:19.538Z,98073.00
2023-05-08T10:10:46.182Z,98060.00
2023-05-08T10:13:13.271Z,98071.00
2023-05-08T10:15:43.074Z,98066.00
2023-05-08T10:18:11.349Z,98076.00
2023-05-08T10:20:41.622Z,98080.00
2023-05-08T10:23:13.698Z,98056.00
2023-05-08T10:25:52.776Z,98058.00
2023-05-08T10:28:55.686Z,98070.00
2023-05-08T10:31:25.473Z,98061.00
2023-05-08T10:33:55.960Z,98072.00
2023-05-08T10:36:28.484Z,98068.00
2023-05-08T10:38:58.666Z,98060.00
2023-05-08T10:41:26.009Z,98073.00
2023-05-08T10:43:54.320Z,98066.00
2023-05-08T10:46:44.782Z,98061.00
2023-05-08T10:49:33.463Z,98069.00
2023-05-08T10:52:20.134Z,98067.00
2023-05-08T10:55:03.549Z,98069.00
2023-05-08T10:57:31.112Z,98067.00
2023-05-08T10:59:57.825Z,98075.00
2023-05-08T11:02:36.127Z,98064.00
2023-05-08T11:05:18.451Z,98077.00
2023-05-08T11:08:00.422Z,98065.00
2023-05-08T11:10:31.668Z,98073.00
2023-05-08T11:12:59.662Z,98065.00
2023-05-08T11:15:37.344Z,98069.00
2023-05-08T11:18:08.243Z,98072.00
2023-05-08T11:20:54.442Z,98072.00
2023-05-08T11:23:32.962Z,98076.00
2023-05-08T11:26:15.644Z,98073.00
2023-05-08T11:28:57.182Z,98058.00
2023-05-08T11:31:23.790Z,98066.00
2023-05-08T11:33:50.046Z,98056.00
2023-05-08T11:36:23.734Z,98059.00
2023-05-08T11:39:08.879Z,98066.00
2023-05-08T11:41:35.596Z,98058.00
2023-05-08T11:44:14.633Z,98053.00
2023-05-08T11:46:52.841Z,98067.00
2023-05-08T11:49:29.042Z,98062.00
2023-05-08T11:51:58.784Z,98053.00
2023-05-08T11:54:29.965Z,98055.00
2023-05-08T11:56:57.071Z,98053.00
2023-05-08T11:59:23.331Z,98059.00
2023-05-08T12:02:06.728Z,98055.00
2023-05-08T12:04:44.871Z,98058.00
2023-05-08T12:07:11.135Z,98055.00
2023-05-08T12:09:37.558Z,98050.00
2023-05-08T12:12:04.218Z,98056.00
2023-05-08T12:14:30.408Z,98049.00
2023-05-08T12:16:56.657Z,98049.00
2023-05-08T12:19:22.922Z,98055.00
2023-05-08T12:21:49.123Z,98041.00
2023-05-08T12:24:22.371Z,98029.00
2023-05-08T12:26:49.671Z,98030.00
2023-05-08T12:29:18.796Z,98033.00
2023-05-08T12:31:45.199Z,98034.00
2023-05-08T12:34:13.830Z,98034.00
2023-05-08T12:36:43.580Z,98028.00
2023-05-08T12:39:18.921Z,98030.00
2023-05-08T12:41:51.023Z,98030.00
2023-05-08T12:44:24.358Z,98037.00
2023-05-08T12:46:53.251Z,98034.00
2023-05-08T12:49:30.427Z,98023.00
2023-05-08T12:52:08.568Z,98017.00
2023-05-08T12:54:36.464Z,98018.00
2023-05-08T12:57:15.602Z,98011.00
2023-05-08T12:59:43.799Z,98021.00
2023-05-08T13:02:23.126Z,98008.00
2023-05-08T13:04:57.407Z,98000.00
2023-05-08T13:07:23.759Z,98009.00
2023-05-08T13:10:04.456Z,98005.00
2023-05-08T13:12:31.343Z,98004.00
2023-05-08T13:14:57.498Z,98007.00
2023-05-08T13:17:23.713Z,98000.00
2023-05-08T13:19:49.896Z,98008.00
2023-05-08T13:22:16.087Z,98009.00
2023-05-08T13:24:42.243Z,98001.00
2023-05-08T13:27:08.649Z,97999.00
2023-05-08T13:29:37.498Z,97996.00
2023-05-08T13:32:03.779Z,97988.00
2023-05-08T13:34:30.203Z,98002.00
2023-05-08T13:36:57.044Z,97992.00
2023-05-08T13:39:23.202Z,98003.00
2023-05-08T13:41:49.424Z,97989.00
2023-05-08T13:44:15.668Z,97986.00
2023-05-08T13:46:42.056Z,97992.00
2023-05-08T13:49:08.205Z,97986.00
2023-05-08T13:51:34.443Z,97990.00
2023-05-08T13:54:00.569Z,97988.00
2023-05-08T13:56:26.783Z,97993.00
2023-05-08T13:58:53.010Z,97992.00
2023-05-08T14:01:26.422Z,97989.00
2023-05-08T14:03:54.516Z,97994.00
2023-05-08T14:06:20.834Z,97990.00
2023-05-08T14:08:50.377Z,97990.00
2023-05-08T14:11:18.003Z,97992.00
2023-05-08T14:13:44.186Z,97984.00
2023-05-08T14:16:12.185Z,97988.00
2023-05-08T14:18:38.349Z,97987.00
2023-05-08T14:21:04.562Z,97980.00
2023-05-08T14:23:30.987Z,97981.00
2023-05-08T14:25:57.401Z,97983.00
2023-05-08T14:28:23.583Z,97980.00
2023-05-08T14:30:50.040Z,97981.00
2023-05-08T14:33:18.598Z,97986.00
2023-05-08T14:35:47.707Z,97975.00
2023-05-08T14:38:14.574Z,97971.00
2023-05-08T14:40:40.749Z,97985.00
2023-05-08T14:43:06.934Z,97970.00
2023-05-08T14:45:33.141Z,97973.00
2023-05-08T14:47:59.714Z,97975.00
2023-05-08T14:50:27.059Z,97973.00
2023-05-08T14:52:53.706Z,97968.00
2023-05-08T14:55:21.018Z,97973.00
2023-05-08T14:57:47.542Z,97979.00
2023-05-08T15:00:15.496Z,97971.00
2023-05-08T15:02:42.693Z,97986.00
2023-05-08T15:05:16.928Z,97970.00
2023-05-08T15:07:45.787Z,97979.00
2023-05-08T15:10:11.957Z,97975.00
2023-05-08T15:12:38.243Z,97974.00
2023-05-08T15:15:05.697Z,97976.00
2023-05-08T15:17:35.088Z,97979.00
2023-05-08T15:20:05.284Z,97980.00
2023-05-08T15:22:32.086Z,97957.00
2023-05-08T15:25:01.888Z,97965.00
2023-05-08T15:27:29.140Z,97963.00
2023-05-08T15:29:55.864Z,97970.00
2023-05-08T15:32:22.708Z,97969.00
2023-05-08T15:34:49.172Z,97967.00
2023-05-08T15:37:15.810Z,97974.00
2023-05-08T15:39:42.578Z,97966.00
2023-05-08T15:42:08.725Z,97974.00
2023-05-08T15:44:52.691Z,97975.00
2023-05-08T15:47:22.220Z,97974.00
2023-05-08T15:49:48.593Z,97972.00
2023-05-08T15:52:17.784Z,97969.00
2023-05-08T15:54:45.655Z,97962.00
2023-05-08T15:57:12.176Z,97968.00
2023-05-08T15:59:38.485Z,97968.00
2023-05-08T16:02:04.956Z,97967.00
2023-05-08T16:04:31.358Z,97972.00
2023-05-08T16:07:00.839Z,97966.00
2023-05-08T16:09:27.085Z,97966.00
2023-05-08T16:11:53.249Z,97980.00
2023-05-08T16:14:19.683Z,97962.00
2023-05-08T16:16:46.950Z,97971.00
2023-05-08T16:19:14.120Z,97973.00
2023-05-08T16:21:40.299Z,97978.00
2023-05-08T16:24:06.687Z,97969.00
2023-05-08T16:26:32.850Z,97957.00
2023-05-08T16:28:58.977Z,97963.00
2023-05-08T16:31:25.245Z,97963.00
2023-05-08T16:33:51.397Z,97956.00
2023-05-08T16:36:17.575Z,97947.00
2023-05-08T16:38:43.769Z,97957.00
2023-05-08T16:41:10.587Z,97940.00
2023-05-08T16:43:36.741Z,97949.00
2023-05-08T16:46:06.321Z,97941.00
2023-05-08T16:48:32.682Z,97935.00
2023-05-08T16:50:59.222Z,97945.00
2023-05-08T16:53:26.568Z,97938.00
2023-05-08T16:55:53.900Z,97940.00
2023-05-08T16:58:22.232Z,97942.00
2023-05-08T17:00:48.790Z,97936.00
2023-05-08T17:03:15.347Z,97929.00
2023-05-08T17:05:41.560Z,97928.00
2023-05-08T17:08:07.715Z,97931.00
2023-05-08T17:10:34.161Z,97949.00
2023-05-08T17:13:00.390Z,97948.00
2023-05-08T17:15:26.654Z,97941.00
2023-05-08T17:17:52.870Z,97943.00
2023-05-08T17:20:19.399Z,97945.00
2023-05-08T17:22:45.568Z,97943.00
2023-05-08T17:25:11.799Z,97940.00
2023-05-08T17:27:38.196Z,97935.00
2023-05-08T17:30:08.104Z,97949.00
2023-05-08T17:32:34.360Z,97945.00
2023-05-08T17:35:00.829Z,97941.00
2023-05-08T17:37:26.985Z,97938.00
2023-05-08T17:39:53.191Z,97943.00
2023-05-08T17:42:19.513Z,97935.00
2023-05-08T17:44:45.726Z,97949.00
2023-05-08T17:47:11.947Z,97952.00
2023-05-08T17:49:38.366Z,97941.00
2023-05-08T17:52:05.277Z,97934.00
2023-05-08T17:54:31.503Z,97934.00
2023-05-08T17:56:57.675Z,97933.00
2023-05-08T17:59:23.825Z,97936.00
2023-05-08T18:01:50.016Z,97932.00
2023-05-08T18:04:16.220Z,97946.00
2023-05-08T18:06:42.701Z,97942.00
2023-05-08T18:09:08.986Z,97946.00
2023-05-08T18:11:35.442Z,97944.00
2023-05-08T18:14:01.600Z,97960.00
2023-05-08T18:16:27.819Z,97961.00
2023-05-08T18:18:54.323Z,97952.00
2023-05-08T18:21:20.590Z,97949.00
2023-05-08T18:23:46.978Z,97956.00
2023-05-08T18:26:15.185Z,97944.00
2023-05-08T18:28:42.518Z,97955.00
2023-05-08T18:31:09.221Z,97953.00
2023-05-08T18:33:36.371Z,97969.00
2023-05-08T18:36:06.283Z,97961.00
2023-05-08T18:38:33.687Z,97968.00
2023-05-08T18:41:06.785Z,97956.00
2023-05-08T18:43:33.255Z,97964.00
2023-05-08T18:45:59.807Z,97960.00
2023-05-08T18:48:26.535Z,97961.00
2023-05-08T18:50:55.029Z,97959.00
2023-05-08T18:53:21.462Z,97955.00
2023-05-08T18:55:47.926Z,97949.00
2023-05-08T18:58:14.142Z,97958.00
2023-05-08T19:00:40.509Z,97971.00
2023-05-08T19:03:06.826Z,97974.00
2023-05-08T19:05:33.161Z,97965.00
2023-05-08T19:07:59.442Z,97962.00
2023-05-08T19:10:25.733Z,97963.00
2023-05-08T19:12:51.939Z,97968.00
2023-05-08T19:15:18.246Z,97962.00
2023-05-08T19:17:44.464Z,97960.00
2023-05-08T19:20:12.153Z,97961.00
2023-05-08T19:22:38.726Z,97965.00
2023-05-08T19:25:05.371Z,97959.00
2023-05-08T19:27:31.500Z,97957.00
2023-05-08T19:29:57.682Z,97945.00
2023-05-08T19:32:23.975Z,97955.00
2023-05-08T19:34:50.172Z,97954.00
2023-05-08T19:37:16.491Z,97953.00
2023-05-08T19:39:42.904Z,97959.00
2023-05-08T19:42:10.679Z,97967.00
2023-05-08T19:44:37.084Z,97953.00
2023-05-08T19:47:04.185Z,97951.00
2023-05-08T19:49:30.615Z,97949.00
2023-05-08T19:51:56.745Z,97958.00
2023-05-08T19:54:23.179Z,97971.00
2023-05-08T19:56:49.419Z,97967.00
2023-05-08T19:59:15.729Z,97966.00
2023-05-08T20:01:42.602Z,97966.00
2023-05-08T20:04:08.885Z,97974.00
2023-05-08T20:06:35.190Z,97949.00
2023-05-08T20:09:01.417Z,97948.00
2023-05-08T20:11:27.850Z,97952.00
2023-05-08T20:13:54.402Z,97956.00
2023-05-08T20:16:20.582Z,97964.00
2023-05-08T20:18:46.776Z,97957.00
2023-05-08T20:21:12.978Z,97961.00
2023-05-08T20:23:40.643Z,97951.00
2023-05-08T20:26:07.737Z,97946.00
2023-05-08T20:28:35.013Z,97954.00
2023-05-08T20:31:01.593Z,97939.00
2023-05-08T20:33:28.287Z,97949.00
2023-05-08T20:35:54.728Z,97946.00
2023-05-08T20:38:21.468Z,97939.00
2023-05-08T20:40:47.783Z,97938.00
2023-05-08T20:43:16.308Z,97929.00
2023-05-08T20:45:42.674Z,97929.00
2023-05-08T20:48:09.098Z,97940.00
2023-05-08T20:50:35.366Z,97929.00
2023-05-08T20:53:01.570Z,97919.00
2023-05-08T20:55:27.732Z,97930.00
2023-05-08T20:57:54.124Z,97938.00
2023-05-08T21:00:20.672Z,97922.00
2023-05-08T21:02:47.149Z,97928.00
2023-05-08T21:05:13.476Z,97933.00
2023-05-08T21:07:41.256Z,97926.00
2023-05-08T21:10:08.378Z,97925.00
2023-05-08T21:12:34.640Z,97937.00
2023-05-08T21:15:00.924Z,97916.00
2023-05-08T21:17:27.191Z,97922.00
2023-05-08T21:19:53.392Z,97913.00
2023-05-08T21:22:19.612Z,97918.00
2023-05-08T21:24:45.751Z,97910.00
2023-05-08T21:27:14.685Z,97915.00
2023-05-08T21:29:40.845Z,97915.00
2023-05-08T21:32:09.481Z,97905.00
2023-05-08T21:34:36.339Z,97904.00
2023-05-08T21:37:02.489Z,97911.00
2023-05-08T21:39:28.661Z,97905.00
2023-05-08T21:41:55.135Z,97913.00
2023-05-08T21:44:21.269Z,97908.00
2023-05-08T21:46:47.533Z,97892.00
2023-05-08T21:49:13.726Z,97894.00
2023-05-08T21:51:40.157Z,97886.00
2023-05-08T21:54:06.348Z,97886.00
2023-05-08T21:56:32.492Z,97876.00
2023-05-08T21:58:58.624Z,97879.00
2023-05-08T22:01:24.810Z,97870.00
2023-05-08T22:03:51.234Z,97877.00
2023-05-08T22:06:17.806Z,97871.00
2023-05-08T22:08:44.215Z,97880.00
2023-05-08T22:11:10.688Z,97873.00
2023-05-08T22:13:36.985Z,97873.00
2023-05-08T22:16:03.508Z,97862.00
2023-05-08T22:18:29.977Z,97892.00
2023-05-08T22:20:56.150Z,97874.00
2023-05-08T22:23:22.343Z,97882.00
2023-05-08T22:25:48.559Z,97885.00
2023-05-08T22:28:14.972Z,97885.00
2023-05-08T22:30:41.153Z,97875.00
2023-05-08T22:33:07.540Z,97876.00
2023-05-08T22:35:33.759Z,97867.00
2023-05-08T22:38:00.009Z,97878.00
2023-05-08T22:40:28.062Z,97868.00
2023-05-08T22:42:55.474Z,97855.00
2023-05-08T22:45:22.599Z,97866.00
2023-05-08T22:47:48.784Z,97851.00
2023-05-08T22:50:16.222Z,97872.00
2023-05-08T22:52:42.393Z,97870.00
2023-05-08T22:55:08.835Z,97852.00
2023-05-08T22:57:35.111Z,97863.00
2023-05-08T23:00:01.397Z,97854.00
2023-05-08T23:02:32.658Z,97867.00
2023-05-08T23:04:59.492Z,97858.00
2023-05-08T23:07:25.699Z,97854.00
2023-05-08T23:09:51.861Z,97851.00
2023-05-08T23:12:17.989Z,97851.00
2023-05-08T23:14:44.453Z,97855.00
2023-05-08T23:17:13.127Z,97852.00
2023-05-08T23:19:41.196Z,97846.00
2023-05-08T23:22:08.254Z,97839.00
2023-05-08T23:24:35.584Z,97840.00
2023-05-08T23:27:01.793Z,97829.00
2023-05-08T23:29:28.220Z,97831.00
2023-05-08T23:31:54.517Z,97841.00
2023-05-08T23:34:20.646Z,97828.00
2023-05-08T23:36:46.896Z,97824.00
2023-05-08T23:39:13.103Z,97821.00
2023-05-08T23:41:39.272Z,97813.00
2023-05-08T23:44:05.491Z,97816.00
2023-05-08T23:46:31.771Z,97815.00
2023-05-08T23:48:57.951Z,97806.00
2023-05-08T23:51:24.145Z,97802.00
2023-05-08T23:53:50.363Z,97804.00
2023-05-08T23:56:16.620Z,97808.00
2023-05-08T23:58:43.103Z,97809.00
